Time;durP1;ratioP1;P1;durP2;ratioP2;P2;SDS_P1;SDS_P2;PMS_P1;PMS_P2;Temp;Humidity;BMP_temperature;BMP_pressure;BME280_temperature;BME280_humidity;BME280_pressure;Samples;Min_cycle;Max_cycle;Signal;HPM_P1;HPM_P2
2022/04/18 00:01:35;;;;;;;15.48;10.70;;;;;;;6.35;53.66;101675.69;5033698;28;20048;-80
2022/04/18 00:04:02;;;;;;;17.17;9.18;;;;;;;6.29;53.50;101676.44;5033785;28;20394;-81
2022/04/18 00:06:28;;;;;;;16.67;9.88;;;;;;;6.25;54.12;101677.22;5031308;28;20048;-81
2022/04/18 00:08:55;;;;;;;15.68;9.13;;;;;;;6.23;54.13;101673.69;5029610;28;20055;-85
2022/04/18 00:11:21;;;;;;;20.17;10.40;;;;;;;6.23;54.67;101674.56;5036524;28;20163;-80
2022/04/18 00:13:48;;;;;;;15.75;9.23;;;;;;;6.23;54.70;101678.88;5034038;28;20058;-81
2022/04/18 00:16:14;;;;;;;13.20;8.48;;;;;;;6.23;54.84;101674.56;5030683;28;20040;-80
2022/04/18 00:18:41;;;;;;;13.60;8.98;;;;;;;6.22;55.15;101671.91;5049059;28;20105;-81
2022/04/18 00:21:07;;;;;;;16.05;9.63;;;;;;;6.18;55.12;101678.78;5052870;28;20049;-83
2022/04/18 00:23:34;;;;;;;17.35;9.88;;;;;;;6.13;54.99;101676.03;5048964;28;20052;-82
2022/04/18 00:26:00;;;;;;;17.17;9.15;;;;;;;6.13;55.39;101664.78;5047207;28;20044;-82
2022/04/18 00:28:27;;;;;;;16.83;9.15;;;;;;;6.12;55.83;101669.06;5049297;28;20048;-80
2022/04/18 00:30:53;;;;;;;21.38;13.93;;;;;;;6.09;55.77;101660.34;5051629;28;20047;-81
2022/04/18 00:33:20;;;;;;;21.00;10.90;;;;;;;6.07;56.29;101662.88;5034621;28;20052;-82
2022/04/18 00:35:46;;;;;;;14.77;8.93;;;;;;;6.02;56.20;101659.28;5027839;28;20040;-80
2022/04/18 00:38:13;;;;;;;15.65;8.82;;;;;;;5.99;56.29;101660.94;5050478;28;20051;-81
2022/04/18 00:40:42;;;;;;;18.63;9.65;;;;;;;5.95;56.67;101660.81;5034409;28;20058;-84
2022/04/18 00:43:09;;;;;;;16.23;9.27;;;;;;;5.91;56.93;101658.97;5033959;28;20254;-80
2022/04/18 00:45:35;;;;;;;19.08;9.27;;;;;;;5.89;56.92;101659.78;5045944;28;20051;-81
2022/04/18 00:48:02;;;;;;;16.58;9.55;;;;;;;5.86;57.03;101662.31;5012962;28;20048;-82
2022/04/18 00:50:33;;;;;;;15.05;9.23;;;;;;;5.85;57.09;101655.34;5032239;28;20048;-81
2022/04/18 00:53:00;;;;;;;17.90;9.18;;;;;;;5.83;57.29;101654.41;5048376;28;20350;-82
2022/04/18 00:55:27;;;;;;;13.98;8.95;;;;;;;5.77;57.72;101647.34;5030643;28;20043;-81
2022/04/18 00:57:56;;;;;;;14.35;9.02;;;;;;;5.74;58.36;101652.47;5031726;28;20094;-80
2022/04/18 01:00:23;;;;;;;15.18;8.82;;;;;;;5.70;58.25;101661.88;5047293;28;20048;-82
2022/04/18 01:02:50;;;;;;;13.43;8.32;;;;;;;5.67;58.20;101653.13;5033131;28;20104;-80
2022/04/18 01:05:17;;;;;;;12.07;8.38;;;;;;;5.63;58.20;101650.44;5042953;28;20526;-82
2022/04/18 01:07:45;;;;;;;15.43;9.80;;;;;;;5.62;58.60;101648.69;5049139;28;20098;-82
2022/04/18 01:10:11;;;;;;;13.80;8.73;;;;;;;5.62;59.05;101648.69;5031023;28;20045;-81
2022/04/18 01:12:38;;;;;;;15.95;9.18;;;;;;;5.62;58.77;101646.09;5036777;28;20053;-81
2022/04/18 01:15:05;;;;;;;16.88;9.10;;;;;;;5.60;59.02;101645.16;5026457;28;20081;-80
2022/04/18 01:17:32;;;;;;;16.15;9.32;;;;;;;5.57;59.26;101641.63;5032854;28;20049;-81
2022/04/18 01:19:58;;;;;;;18.10;9.88;;;;;;;5.56;59.05;101635.53;5034842;28;20055;-82
2022/04/18 01:22:25;;;;;;;16.98;9.30;;;;;;;5.55;59.02;101625.97;5046663;28;20060;-80
2022/04/18 01:30:19;;;;;;;12.55;8.48;;;;;;;5.49;59.37;101614.53;5049061;28;20214;-82
2022/04/18 01:32:46;;;;;;;15.10;9.02;;;;;;;5.46;59.54;101615.31;5035247;28;20052;-80
2022/04/18 01:35:12;;;;;;;14.07;10.70;;;;;;;5.42;59.90;101613.47;5043441;28;20059;-81
2022/04/18 01:37:39;;;;;;;18.00;10.45;;;;;;;5.37;60.57;101608.19;5029850;28;20047;-81
2022/04/18 01:40:06;;;;;;;23.45;10.45;;;;;;;5.33;60.54;101605.44;5046999;28;20055;-81
2022/04/18 01:42:33;;;;;;;22.08;12.60;;;;;;;5.29;60.48;101609.66;5030454;28;20052;-83
2022/04/18 01:45:00;;;;;;;16.75;11.07;;;;;;;5.24;60.63;101606.97;5027830;28;20070;-81
2022/04/18 01:47:27;;;;;;;24.17;13.90;;;;;;;5.21;61.16;101605.97;5030814;28;20094;-80
2022/04/18 01:49:54;;;;;;;26.52;13.55;;;;;;;5.20;61.00;101602.53;5032709;28;20834;-79
2022/04/18 01:52:21;;;;;;;20.00;12.13;;;;;;;5.18;61.32;101601.59;5033331;28;20063;-80
2022/04/18 01:54:47;;;;;;;22.42;13.25;;;;;;;5.13;61.62;101600.56;5043607;28;20044;-84
2022/04/18 01:57:14;;;;;;;18.67;11.63;;;;;;;5.09;61.57;101603.91;5047286;28;20066;-80
2022/04/18 01:59:42;;;;;;;19.40;11.90;;;;;;;5.06;62.01;101599.53;5032568;28;20055;-85
2022/04/18 02:02:09;;;;;;;19.90;13.18;;;;;;;5.04;61.78;101598.59;5046444;28;20167;-80
2022/04/18 02:04:36;;;;;;;18.15;11.13;;;;;;;5.02;62.09;101600.28;5027751;28;21123;-82
2022/04/18 02:07:03;;;;;;;21.10;10.38;;;;;;;5.01;61.89;101592.44;5028881;28;20641;-80
2022/04/18 02:09:30;;;;;;;20.67;11.65;;;;;;;4.99;62.47;101592.38;5031833;28;20055;-81
2022/04/18 02:11:56;;;;;;;21.08;11.93;;;;;;;4.98;62.51;101588.03;5032681;28;20059;-80
2022/04/18 02:14:22;;;;;;;24.70;12.00;;;;;;;4.96;62.36;101593.16;5042862;28;20056;-81
2022/04/18 02:16:49;;;;;;;18.88;10.90;;;;;;;4.94;62.38;101593.94;5048917;28;20113;-80
2022/04/18 02:19:15;;;;;;;21.00;12.57;;;;;;;4.93;63.07;101592.22;5031463;28;20056;-81
2022/04/18 02:21:42;;;;;;;22.50;12.48;;;;;;;4.91;63.30;101591.28;5048410;28;20063;-81
2022/04/18 02:24:08;;;;;;;20.70;11.70;;;;;;;4.88;63.06;101597.25;5029761;28;20060;-80
2022/04/18 02:26:35;;;;;;;21.98;11.65;;;;;;;4.87;63.10;101587.72;5026800;28;20424;-80
2022/04/18 02:29:02;;;;;;;22.15;12.48;;;;;;;4.85;62.95;101588.50;5048051;28;20564;-80
2022/04/18 02:31:28;;;;;;;19.13;10.50;;;;;;;4.83;63.38;101590.19;5048213;28;20048;-81
2022/04/18 02:33:55;;;;;;;17.35;12.45;;;;;;;4.80;63.52;101580.59;5034356;28;20058;-83
2022/04/18 02:36:21;;;;;;;19.10;11.00;;;;;;;4.80;64.02;101585.78;5047985;28;20036;-82
2022/04/18 02:38:48;;;;;;;21.67;11.10;;;;;;;4.81;64.24;101584.97;5038573;28;20059;-81
2022/04/18 02:41:14;;;;;;;17.90;11.15;;;;;;;4.80;64.46;101585.78;5052071;28;20437;-83
2022/04/18 02:43:41;;;;;;;19.02;10.80;;;;;;;4.79;64.70;101584.03;5054156;28;20064;-80
2022/04/18 02:46:07;;;;;;;20.08;13.48;;;;;;;4.78;65.05;101582.25;5053455;28;20076;-83
2022/04/18 02:48:34;;;;;;;19.98;11.20;;;;;;;4.76;65.46;101574.44;5054598;28;20117;-80
2022/04/18 02:51:01;;;;;;;20.95;11.65;;;;;;;4.74;65.31;101576.09;5048447;28;20040;-80
2022/04/18 02:53:27;;;;;;;22.40;11.68;;;;;;;4.70;65.80;101574.25;5032109;28;20064;-82
2022/04/18 02:55:54;;;;;;;23.40;13.10;;;;;;;4.69;66.32;101576.78;5048884;28;20070;-81
2022/04/18 02:58:20;;;;;;;19.35;11.45;;;;;;;4.67;66.32;101570.66;5053547;28;20041;-82
2022/04/18 03:00:47;;;;;;;16.95;10.95;;;;;;;4.66;66.16;101568.94;5050548;28;20703;-80
2022/04/18 03:03:13;;;;;;;27.70;11.27;;;;;;;4.62;66.20;101565.34;5050048;28;20441;-80
2022/04/18 03:05:40;;;;;;;18.65;11.10;;;;;;;4.61;66.45;101566.19;5047131;28;20052;-81
2022/04/18 03:08:07;;;;;;;18.77;11.00;;;;;;;4.59;66.78;101566.16;5046005;28;20045;-81
2022/04/18 03:13:18;;;;;;;19.27;10.75;;;;;;;4.54;66.71;101559.94;5050545;28;20123;-79
2022/04/18 03:15:44;;;;;;;19.58;10.98;;;;;;;4.54;66.84;101554.75;5033989;28;20179;-81
2022/04/18 03:18:11;;;;;;;21.65;10.63;;;;;;;4.53;66.66;101554.72;5048500;28;20110;-80
2022/04/18 03:20:37;;;;;;;22.27;11.43;;;;;;;4.49;66.80;101553.72;5033339;28;20049;-80
2022/04/18 03:23:04;;;;;;;17.92;10.85;;;;;;;4.49;66.52;101553.72;5033104;28;20075;-83
2022/04/18 03:25:30;;;;;;;23.85;11.85;;;;;;;4.48;66.51;101544.19;5030481;28;20044;-81
2022/04/18 03:27:57;;;;;;;16.92;11.18;;;;;;;4.46;66.31;101538.97;5033551;28;20052;-81
2022/04/18 03:30:23;;;;;;;20.58;10.85;;;;;;;4.44;66.43;101545.78;5035192;28;20049;-82
2022/04/18 03:32:50;;;;;;;18.33;11.35;;;;;;;4.42;66.97;101544.00;5051818;28;20049;-84
2022/04/18 03:35:16;;;;;;;19.83;12.02;;;;;;;4.43;66.77;101538.88;5032249;28;20040;-81
2022/04/18 03:40:27;;;;;;;18.83;11.98;;;;;;;4.39;66.70;101538.72;5034369;28;20105;-80
2022/04/18 03:42:53;;;;;;;18.80;10.88;;;;;;;4.35;67.27;101536.88;5035652;28;20070;-81
2022/04/18 03:45:20;;;;;;;18.27;11.50;;;;;;;4.33;66.71;101536.84;5046457;28;20113;-80
2022/04/18 03:47:46;;;;;;;18.50;10.07;;;;;;;4.32;67.34;101529.00;5033583;28;20048;-83
2022/04/18 03:50:14;;;;;;;18.17;12.15;;;;;;;4.30;67.27;101536.72;5047134;28;20048;-81
2022/04/18 03:52:40;;;;;;;24.70;10.95;;;;;;;4.29;67.65;101527.22;5035481;28;20048;-81
2022/04/18 03:55:07;;;;;;;17.73;10.85;;;;;;;4.26;67.68;101529.69;5032106;28;20418;-83
2022/04/18 03:57:34;;;;;;;20.85;11.57;;;;;;;4.24;67.72;101534.81;5049412;28;20423;-81
2022/04/18 04:00:00;;;;;;;15.35;11.00;;;;;;;4.23;67.66;101527.00;5034569;28;20070;-81
2022/04/18 04:02:27;;;;;;;19.38;11.65;;;;;;;4.17;67.59;101527.69;5049435;28;20394;-83
2022/04/18 04:04:53;;;;;;;17.30;11.57;;;;;;;4.17;67.83;101525.09;5048934;28;20044;-81
2022/04/18 04:07:20;;;;;;;18.15;11.23;;;;;;;4.14;67.94;101523.28;5049764;28;20036;-79
2022/04/18 04:09:46;;;;;;;14.70;10.25;;;;;;;4.11;68.05;101530.97;5047940;28;20051;-80
2022/04/18 04:12:13;;;;;;;19.20;12.05;;;;;;;4.09;67.62;101530.06;5047075;28;20041;-81
2022/04/18 04:14:39;;;;;;;19.00;10.93;;;;;;;4.09;67.42;101530.06;5034816;28;20052;-82
2022/04/18 04:17:06;;;;;;;21.35;13.45;;;;;;;4.08;67.77;101524.81;5050057;28;20113;-83
2022/04/18 04:19:33;;;;;;;19.30;12.15;;;;;;;4.08;67.93;101524.81;5032462;28;20055;-80
2022/04/18 04:22:00;;;;;;;19.73;11.07;;;;;;;4.08;68.10;101525.69;5037780;28;20064;-80
2022/04/18 04:24:26;;;;;;;16.27;10.98;;;;;;;4.09;67.60;101532.66;5052345;28;20052;-82
2022/04/18 04:26:53;;;;;;;15.63;11.10;;;;;;;4.11;68.70;101533.56;5051086;28;20070;-81
2022/04/18 04:29:19;;;;;;;17.90;11.00;;;;;;;4.08;68.34;101535.16;5034931;28;20067;-81
2022/04/18 04:31:46;;;;;;;16.33;11.90;;;;;;;4.02;68.04;101530.69;5036332;28;20436;-80
2022/04/18 04:34:12;;;;;;;14.98;10.35;;;;;;;3.94;68.62;101522.66;5049657;28;20422;-82
2022/04/18 04:36:39;;;;;;;19.15;10.38;;;;;;;3.91;68.91;101521.66;5051137;28;20777;-81
2022/04/18 04:39:06;;;;;;;19.00;11.35;;;;;;;3.88;69.23;101527.63;5046967;28;20524;-81
2022/04/18 04:41:32;;;;;;;16.80;10.77;;;;;;;3.86;69.01;101529.31;5051278;28;20059;-81
2022/04/18 04:43:59;;;;;;;17.85;10.25;;;;;;;3.84;68.92;101523.19;5034249;28;20053;-80
2022/04/18 04:46:26;;;;;;;17.73;10.77;;;;;;;3.81;69.14;101521.38;5036126;28;20051;-81
2022/04/18 04:48:53;;;;;;;14.65;10.70;;;;;;;3.80;69.35;101518.75;5032844;28;20126;-80
2022/04/18 04:51:19;;;;;;;16.25;11.35;;;;;;;3.80;69.45;101522.19;5047512;28;20060;-82
2022/04/18 04:53:46;;;;;;;19.75;10.60;;;;;;;3.81;69.92;101517.91;5033486;28;20055;-80
2022/04/18 04:56:13;;;;;;;16.08;10.35;;;;;;;3.81;69.68;101518.78;5047640;28;20044;-83
2022/04/18 04:58:39;;;;;;;18.42;11.07;;;;;;;3.80;69.21;101522.19;5035151;28;20055;-79
2022/04/18 05:01:07;;;;;;;17.95;12.25;;;;;;;3.82;70.19;101511.91;5034685;28;20048;-82
2022/04/18 05:03:33;;;;;;;21.25;12.82;;;;;;;3.86;69.86;101511.19;5050889;28;20510;-80
2022/04/18 05:06:00;;;;;;;17.83;11.27;;;;;;;3.87;70.03;101507.75;5030182;28;20052;-80
2022/04/18 05:08:26;;;;;;;17.55;11.85;;;;;;;3.89;69.86;101510.41;5050469;28;20152;-81
2022/04/18 05:10:54;;;;;;;15.32;10.48;;;;;;;3.91;70.54;101511.31;5051359;28;20281;-80
2022/04/18 05:13:22;;;;;;;18.98;12.32;;;;;;;3.95;70.52;101511.47;5050960;28;20042;-82
2022/04/18 05:15:49;;;;;;;19.20;10.48;;;;;;;4.00;70.75;101514.19;5031274;28;20097;-80
2022/04/18 05:18:15;;;;;;;21.77;13.63;;;;;;;4.05;70.62;101512.63;5033166;28;20044;-80
2022/04/18 05:20:42;;;;;;;20.38;13.88;;;;;;;4.05;70.47;101517.81;5034929;28;20055;-82
2022/04/18 05:23:08;;;;;;;18.92;11.98;;;;;;;4.08;70.21;101519.63;5033595;28;20112;-82
2022/04/18 05:25:35;;;;;;;17.73;11.75;;;;;;;4.08;70.82;101515.34;5047366;28;20047;-81
2022/04/18 05:28:01;;;;;;;19.73;11.70;;;;;;;4.11;70.65;101515.41;5050084;28;20502;-81
2022/04/18 05:30:28;;;;;;;20.05;13.55;;;;;;;4.18;70.40;101507.84;5033507;28;20048;-80
2022/04/18 05:32:54;;;;;;;20.45;12.60;;;;;;;4.21;69.88;101508.81;5034020;28;20075;-81
2022/04/18 05:35:21;;;;;;;22.75;12.63;;;;;;;4.27;69.98;101508.13;5047192;28;20048;-81
2022/04/18 05:37:48;;;;;;;20.63;12.48;;;;;;;4.30;69.81;101514.28;5033782;28;20048;-79
2022/04/18 05:40:15;;;;;;;24.77;13.27;;;;;;;4.37;69.78;101522.22;5050768;28;20051;-82
2022/04/18 05:42:41;;;;;;;23.85;12.75;;;;;;;4.44;69.42;101512.09;5045678;28;20048;-82
2022/04/18 05:45:09;;;;;;;21.98;13.02;;;;;;;4.49;69.23;101509.66;5031640;28;20052;-81
2022/04/18 05:47:35;;;;;;;19.58;12.30;;;;;;;4.52;69.26;101514.06;5032913;28;20052;-80
2022/04/18 05:50:02;;;;;;;18.67;12.50;;;;;;;4.58;69.24;101516.84;5051051;28;20040;-80
2022/04/18 05:52:29;;;;;;;19.27;13.25;;;;;;;4.66;68.80;101514.47;5047475;28;20139;-80
2022/04/18 05:54:55;;;;;;;21.45;13.40;;;;;;;4.73;68.28;101517.28;5050650;28;20048;-80
2022/04/18 05:57:22;;;;;;;21.23;12.30;;;;;;;4.76;68.44;101516.50;5044616;28;20037;-81
2022/04/18 05:59:49;;;;;;;21.92;12.45;;;;;;;4.84;68.26;101516.69;5033359;28;20048;-79
2022/04/18 06:02:16;;;;;;;23.30;13.90;;;;;;;4.91;67.53;101513.44;5030565;28;20053;-84
2022/04/18 06:04:42;;;;;;;17.77;12.32;;;;;;;4.99;67.48;101513.66;5046513;28;20478;-83
2022/04/18 06:07:09;;;;;;;18.67;11.93;;;;;;;5.04;66.86;101515.53;5046723;28;20044;-81
2022/04/18 06:09:35;;;;;;;17.45;12.63;;;;;;;5.10;66.96;101512.25;5029756;28;20048;-81
2022/04/18 06:12:02;;;;;;;20.55;12.05;;;;;;;5.18;66.98;101512.47;5044762;28;20043;-81
2022/04/18 06:14:29;;;;;;;22.77;12.80;;;;;;;5.24;67.30;101513.50;5042602;28;20126;-81
2022/04/18 06:16:55;;;;;;;20.98;12.25;;;;;;;5.34;66.95;101514.59;5044464;28;20048;-81
2022/04/18 06:19:21;;;;;;;22.83;13.32;;;;;;;5.45;66.02;101520.09;5047682;28;20055;-80
2022/04/18 06:21:49;;;;;;;24.50;13.20;;;;;;;5.53;66.09;101515.09;5051285;28;20610;-80
2022/04/18 06:24:16;;;;;;;22.67;13.25;;;;;;;5.63;65.04;101517.97;5050113;28;20072;-83
2022/04/18 06:26:42;;;;;;;18.25;11.45;;;;;;;5.73;64.39;101520.78;5033090;28;20518;-80
2022/04/18 06:29:09;;;;;;;16.60;10.55;;;;;;;5.82;62.84;101518.41;5048811;28;20051;-81
2022/04/18 06:31:35;;;;;;;18.55;11.27;;;;;;;5.87;62.93;101514.22;5049979;28;20053;-81
2022/04/18 06:34:02;;;;;;;21.42;11.15;;;;;;;5.97;62.13;101513.59;5035855;28;20044;-81
2022/04/18 06:36:28;;;;;;;22.02;11.32;;;;;;;6.07;62.13;101521.66;5030036;28;20055;-80
2022/04/18 06:38:54;;;;;;;23.95;13.02;;;;;;;6.22;61.43;101519.41;5048404;28;20479;-80
2022/04/18 06:41:21;;;;;;;19.23;11.07;;;;;;;6.45;60.99;101512.13;5047869;28;20052;-83
2022/04/18 06:43:47;;;;;;;19.77;10.35;;;;;;;6.85;60.37;101521.63;5034146;28;20321;-80
2022/04/18 06:46:14;;;;;;;17.45;10.05;;;;;;;7.26;59.21;101514.59;5046381;28;20044;-81
2022/04/18 06:48:40;;;;;;;19.73;12.00;;;;;;;7.71;58.72;101514.50;5029971;28;20044;-83
2022/04/18 06:51:07;;;;;;;15.18;10.90;;;;;;;8.18;56.82;101513.50;5026744;28;20057;-83
2022/04/18 06:53:33;;;;;;;13.02;9.48;;;;;;;8.66;55.92;101512.47;5030247;28;20098;-81
2022/04/18 06:58:44;;;;;;;13.57;9.43;;;;;;;9.60;54.04;101513.47;5053060;28;20475;-83
2022/04/18 07:01:11;;;;;;;18.10;10.60;;;;;;;10.11;53.19;101505.13;5048431;28;20667;-81
2022/04/18 07:03:37;;;;;;;13.77;10.05;;;;;;;10.61;51.77;101508.06;5046580;28;20060;-84
2022/04/18 07:06:04;;;;;;;19.13;11.02;;;;;;;11.17;50.12;101504.78;5032549;28;20407;-81
2022/04/18 07:08:30;;;;;;;15.77;10.55;;;;;;;11.55;48.13;101503.94;5047724;28;20208;-82
2022/04/18 07:10:57;;;;;;;17.13;9.55;;;;;;;11.88;47.86;101499.56;5028669;28;20135;-83
2022/04/18 07:13:24;;;;;;;13.90;9.57;;;;;;;12.21;46.79;101494.31;5048376;28;20044;-82
2022/04/18 07:15:50;;;;;;;15.88;9.52;;;;;;;12.55;45.94;101495.09;5048655;28;20106;-83
2022/04/18 07:18:17;;;;;;;15.20;10.13;;;;;;;12.90;45.30;101490.56;5050566;28;20108;-84
2022/04/18 07:20:43;;;;;;;17.83;11.90;;;;;;;13.29;44.33;101490.34;5050843;28;20045;-83
2022/04/18 07:23:10;;;;;;;15.60;9.52;;;;;;;13.70;43.40;101497.06;5052725;28;20153;-82
2022/04/18 07:25:36;;;;;;;12.45;9.00;;;;;;;13.99;42.42;101495.94;5031357;28;20511;-84
2022/04/18 07:28:04;;;;;;;17.60;8.60;;;;;;;14.17;40.82;101502.75;5051763;28;20149;-81
2022/04/18 07:30:32;;;;;;;16.13;9.93;;;;;;;14.29;40.36;101496.50;5050318;28;20418;-82
2022/04/18 07:32:59;;;;;;;14.82;8.90;;;;;;;14.52;40.23;101499.75;5033289;28;20055;-82
2022/04/18 07:35:26;;;;;;;12.60;8.65;;;;;;;14.71;39.72;101504.84;5048700;28;20055;-82
2022/04/18 07:40:37;;;;;;;12.43;8.68;;;;;;;15.51;37.98;101487.88;5048785;28;20032;-82
2022/04/18 07:43:04;;;;;;;11.55;8.18;;;;;;;15.98;37.49;101498.56;5051442;28;20049;-85
2022/04/18 07:45:30;;;;;;;12.65;9.15;;;;;;;16.39;36.41;101496.03;5035428;28;20044;-83
2022/04/18 07:47:58;;;;;;;11.00;8.23;;;;;;;16.68;35.99;101494.56;5046989;28;20340;-80
2022/04/18 07:51:31;;;;;;;13.38;8.65;;;;;;;16.91;35.48;101493.22;5034254;28;20056;-82
2022/04/18 07:53:11;;;;;;;10.82;7.68;;;;;;;17.17;34.81;101488.22;5052371;28;20099;-80
2022/04/18 07:55:38;;;;;;;11.05;7.97;;;;;;;17.69;33.82;101488.72;5052556;28;20056;-84
2022/04/18 07:58:04;;;;;;;10.65;8.38;;;;;;;17.97;33.14;101484.53;5048113;28;20495;-81
2022/04/18 08:00:31;;;;;;;11.70;8.05;;;;;;;18.19;32.84;101490.97;5035315;28;20052;-80
2022/04/18 08:02:57;;;;;;;12.38;8.75;;;;;;;18.23;32.75;101493.56;5034241;28;20048;-84
2022/04/18 08:05:24;;;;;;;11.68;8.73;;;;;;;18.52;32.55;101496.25;5034111;28;20057;-81
2022/04/18 08:07:50;;;;;;;13.45;8.85;;;;;;;18.84;31.81;101498.88;5025686;28;20047;-82
2022/04/18 08:10:17;;;;;;;8.63;7.63;;;;;;;19.32;31.35;101500.06;5031907;28;20052;-85
2022/04/18 08:12:43;;;;;;;10.57;7.65;;;;;;;19.89;30.19;101492.03;5046684;28;20104;-82
2022/04/18 08:15:10;;;;;;;9.70;7.03;;;;;;;20.49;29.68;101498.75;5032709;28;20064;-83
2022/04/18 08:17:36;;;;;;;9.02;7.30;;;;;;;20.67;28.91;101493.66;5049591;28;20087;-81
2022/04/18 08:20:04;;;;;;;9.13;7.05;;;;;;;20.84;28.23;101484.19;5035771;28;20112;-81
2022/04/18 08:22:30;;;;;;;7.38;6.30;;;;;;;21.03;28.23;101493.19;5027928;28;20044;-82
2022/04/18 08:24:57;;;;;;;10.27;7.25;;;;;;;21.14;27.56;101490.94;5048529;28;20103;-80
2022/04/18 08:27:23;;;;;;;9.52;6.80;;;;;;;21.03;27.48;101493.19;5048734;28;20063;-83
2022/04/18 08:29:50;;;;;;;9.85;7.00;;;;;;;21.25;26.81;101487.00;5035297;28;20056;-82
2022/04/18 08:32:16;;;;;;;10.65;7.30;;;;;;;21.46;26.65;101479.94;5032453;28;20411;-84
2022/04/18 08:34:43;;;;;;;11.07;6.60;;;;;;;21.65;25.97;101482.72;5029305;28;20573;-80
2022/04/18 08:37:09;;;;;;;6.50;5.85;;;;;;;21.51;25.94;101479.72;5049057;28;20494;-81
2022/04/18 08:39:36;;;;;;;12.02;7.07;;;;;;;21.90;25.34;101481.66;5049849;28;20188;-82
2022/04/18 08:42:04;;;;;;;8.35;7.10;;;;;;;22.22;25.02;101484.72;5045123;28;20049;-85
2022/04/18 08:44:31;;;;;;;10.20;6.53;;;;;;;22.25;25.01;101481.91;5046929;28;20402;-80
2022/04/18 08:46:58;;;;;;;8.05;6.35;;;;;;;22.62;24.39;101485.59;5037401;28;20076;-81
2022/04/18 08:54:53;;;;;;;7.72;6.50;;;;;;;23.42;23.14;101465.75;5033459;28;20032;-81
2022/04/18 08:57:20;;;;;;;10.07;7.13;;;;;;;23.40;22.63;101462.31;5049721;28;20048;-81
2022/04/18 08:59:46;;;;;;;8.75;6.68;;;;;;;23.50;23.25;101464.50;5035472;28;20113;-85
2022/04/18 09:02:13;;;;;;;7.45;6.15;;;;;;;23.93;22.46;101460.50;5035179;28;20055;-82
2022/04/18 09:04:39;;;;;;;5.95;5.30;;;;;;;24.49;21.96;101462.03;5048156;28;20059;-82
2022/04/18 09:07:15;;;;;;;7.13;5.45;;;;;;;24.74;21.02;101451.75;5016717;28;20048;-81
2022/04/18 09:09:42;;;;;;;5.45;4.63;;;;;;;24.67;20.91;101447.66;5048703;28;20117;-81
2022/04/18 09:12:24;;;;;;;4.05;3.47;;;;;;;24.53;19.97;101452.91;5046805;28;20515;-84
2022/04/18 09:14:50;;;;;;;4.60;3.83;;;;;;;24.45;20.35;101447.97;5033330;28;20075;-82
2022/04/18 09:17:35;;;;;;;5.47;4.18;;;;;;;24.39;20.22;101449.16;5032483;28;20365;-82
2022/04/18 09:20:10;;;;;;;5.53;3.95;;;;;;;24.66;20.57;101445.94;5032521;28;20060;-84
2022/04/18 09:22:45;;;;;;;5.57;4.10;;;;;;;25.04;19.36;101448.25;5045412;28;20048;-83
2022/04/18 09:25:21;;;;;;;3.55;3.20;;;;;;;25.21;19.62;101441.94;5046021;28;20056;-82
2022/04/18 09:27:50;;;;;;;2.65;2.40;;;;;;;25.06;19.50;101438.31;5030721;28;20440;-82
2022/04/18 09:30:17;;;;;;;2.35;2.15;;;;;;;25.47;19.22;101439.56;5048513;28;20071;-81
2022/04/18 09:33:06;;;;;;;3.50;3.20;;;;;;;25.50;19.09;101446.53;5030233;28;20052;-80
2022/04/18 09:35:34;;;;;;;4.15;3.00;;;;;;;25.63;19.34;101427.91;5031026;28;20517;-83
2022/04/18 09:38:06;;;;;;;5.35;4.32;;;;;;;25.82;18.94;101433.03;5048348;28;20072;-82
2022/04/18 09:40:34;;;;;;;6.38;3.20;;;;;;;26.51;18.80;101428.72;5047111;28;20094;-82
2022/04/18 09:43:01;;;;;;;3.97;3.60;;;;;;;26.40;18.56;101426.75;5033620;28;20071;-82
2022/04/18 09:45:28;;;;;;;5.65;3.90;;;;;;;26.02;18.88;101427.31;5036310;28;20084;-82
2022/04/18 09:48:00;;;;;;;4.80;4.03;;;;;;;26.28;19.12;101416.78;5034666;28;20044;-82
2022/04/18 09:53:23;;;;;;;3.92;3.63;;;;;;;26.99;18.21;101412.22;5034575;28;20044;-83
2022/04/18 09:55:53;;;;;;;4.25;3.85;;;;;;;27.89;18.23;101403.50;5046765;28;20073;-83
2022/04/18 09:58:20;;;;;;;4.28;3.97;;;;;;;28.14;17.50;101399.09;5049236;28;20036;-83
2022/04/18 10:00:49;;;;;;;4.40;3.70;;;;;;;28.11;17.73;101399.28;5031019;28;20532;-82
2022/04/18 10:03:18;;;;;;;4.03;3.72;;;;;;;28.21;17.25;101403.91;5023569;28;20052;-83
2022/04/18 10:05:44;;;;;;;4.28;3.97;;;;;;;28.53;17.52;101399.84;5032834;28;20521;-85
2022/04/18 10:08:11;;;;;;;4.20;3.80;;;;;;;28.73;16.60;101394.84;5031237;28;20044;-81
2022/04/18 10:10:40;;;;;;;4.47;3.78;;;;;;;29.22;16.98;101391.16;5048410;28;20044;-82
2022/04/18 10:13:07;;;;;;;5.47;3.58;;;;;;;29.89;16.16;101392.31;5043416;28;20048;-81
2022/04/18 10:15:39;;;;;;;3.45;3.15;;;;;;;30.31;15.54;101386.28;5031859;28;20079;-82
2022/04/18 10:18:08;;;;;;;3.15;2.90;;;;;;;30.14;15.46;101374.16;5027861;28;20040;-81
2022/04/18 10:21:04;;;;;;;3.63;3.03;;;;;;;30.34;14.85;101372.53;5041512;28;20056;-85
2022/04/18 10:23:55;;;;;;;3.58;3.28;;;;;;;30.35;14.64;101369.72;5025553;28;20132;-83
2022/04/18 10:26:52;;;;;;;6.07;3.17;;;;;;;29.99;15.26;101368.16;5049487;28;20048;-81
2022/04/18 10:29:27;;;;;;;5.40;2.95;;;;;;;30.19;15.22;101361.13;5065263;28;20458;-81
2022/04/18 10:31:55;;;;;;;4.68;3.55;;;;;;;30.45;14.77;101368.94;5048531;28;20050;-82
2022/04/18 10:34:26;;;;;;;3.70;3.45;;;;;;;29.96;15.28;101362.97;5029535;28;20052;-81
2022/04/18 10:36:55;;;;;;;3.75;3.45;;;;;;;29.33;15.32;101366.97;5045251;28;20132;-82
2022/04/18 10:39:22;;;;;;;3.58;3.28;;;;;;;29.92;15.50;101361.50;5030856;28;20041;-83
2022/04/18 10:41:51;;;;;;;3.97;3.58;;;;;;;30.94;14.65;101355.94;5046555;28;20057;-82
2022/04/18 10:44:19;;;;;;;3.47;3.17;;;;;;;31.52;14.10;101360.88;5047877;28;20136;-82
2022/04/18 10:46:49;;;;;;;3.33;3.13;;;;;;;31.18;14.07;101350.28;5032309;28;20045;-81
2022/04/18 10:49:23;;;;;;;3.33;3.10;;;;;;;31.40;13.78;101348.44;5044564;28;20032;-81
2022/04/18 10:51:53;;;;;;;3.33;3.13;;;;;;;31.39;14.06;101357.56;5031531;28;20445;-81
2022/04/18 10:54:23;;;;;;;4.13;3.80;;;;;;;31.07;14.26;101345.81;5031556;28;20052;-82
2022/04/18 10:57:03;;;;;;;4.93;4.53;;;;;;;31.19;14.72;101346.59;5046169;28;20063;-85
2022/04/18 10:59:34;;;;;;;5.20;4.80;;;;;;;30.77;15.17;101341.97;5069846;28;20518;-81
2022/04/18 11:02:04;;;;;;;5.65;5.18;;;;;;;29.57;16.00;101346.25;5036341;28;20454;-81
2022/04/18 11:04:34;;;;;;;5.30;4.80;;;;;;;29.46;15.99;101339.00;5029143;28;20151;-84
2022/04/18 11:07:05;;;;;;;5.22;4.75;;;;;;;30.03;15.43;101340.78;5020600;28;20053;-80
2022/04/18 11:09:36;;;;;;;5.97;5.18;;;;;;;29.89;15.50;101343.72;5050276;28;20305;-82
2022/04/18 11:12:17;;;;;;;5.18;4.80;;;;;;;30.60;15.03;101332.59;5049220;28;20051;-82
2022/04/18 11:15:03;;;;;;;5.65;5.15;;;;;;;31.59;14.44;101323.31;5050573;28;20151;-84
2022/04/18 11:17:38;;;;;;;5.10;4.43;;;;;;;31.70;14.27;101327.84;5053335;28;20493;-83
2022/04/18 11:20:41;;;;;;;4.50;4.10;;;;;;;32.31;13.50;101325.06;5033299;28;20052;-82
2022/04/18 11:23:26;;;;;;;4.97;4.55;;;;;;;32.49;13.13;101319.81;5049836;28;21065;-84
2022/04/18 11:25:55;;;;;;;4.93;4.53;;;;;;;32.38;13.34;101314.50;5045728;28;20523;-83
2022/04/18 11:28:23;;;;;;;4.38;4.07;;;;;;;32.14;13.91;101310.31;5049173;28;20044;-80
2022/04/18 11:30:51;;;;;;;4.72;4.25;;;;;;;32.11;13.54;101307.00;5035373;28;20059;-82
2022/04/18 11:33:18;;;;;;;4.00;3.80;;;;;;;32.29;13.16;101315.34;5032166;28;20048;-82
2022/04/18 11:35:45;;;;;;;4.38;4.07;;;;;;;32.61;13.41;101312.38;5032838;28;20526;-83
2022/04/18 11:38:12;;;;;;;4.20;3.90;;;;;;;32.68;13.30;101298.28;5034748;28;20044;-81
2022/04/18 11:40:40;;;;;;;4.60;4.20;;;;;;;32.47;12.53;101305.53;5047649;28;20045;-83
2022/04/18 11:43:16;;;;;;;4.28;3.88;;;;;;;32.23;12.73;101303.25;5049783;28;20423;-84
2022/04/18 11:45:44;;;;;;;3.47;3.28;;;;;;;32.80;12.11;101300.72;5049333;28;20044;-82
2022/04/18 11:48:14;;;;;;;4.40;4.10;;;;;;;33.25;11.78;101304.63;5024793;28;20049;-83